sensor_id;sensor_type;location;lat;lon;timestamp;P1;durP1;ratioP1;P2;durP2;ratioP2
76837;SDS011;65797;47.352;8.164;2023-03-20T00:01:11;1.90;;;1.80;;
76837;SDS011;65797;47.352;8.164;2023-03-20T00:03:38;3.10;;;2.30;;
76837;SDS011;65797;47.352;8.164;2023-03-20T00:06:04;2.40;;;2.20;;
76837;SDS011;65797;47.352;8.164;2023-03-20T00:08:35;2.70;;;2.10;;
76837;SDS011;65797;47.352;8.164;2023-03-20T00:11:00;2.53;;;2.33;;
76837;SDS011;65797;47.352;8.164;2023-03-20T00:13:26;3.00;;;2.30;;
76837;SDS011;65797;47.352;8.164;2023-03-20T00:15:52;2.53;;;2.33;;
76837;SDS011;65797;47.352;8.164;2023-03-20T00:18:19;3.40;;;3.10;;
76837;SDS011;65797;47.352;8.164;2023-03-20T00:20:47;3.17;;;2.60;;
76837;SDS011;65797;47.352;8.164;2023-03-20T00:23:14;3.60;;;2.90;;
76837;SDS011;65797;47.352;8.164;2023-03-20T00:25:41;2.90;;;2.67;;
76837;SDS011;65797;47.352;8.164;2023-03-20T00:28:25;4.20;;;2.23;;
76837;SDS011;65797;47.352;8.164;2023-03-20T00:31:03;2.30;;;2.10;;
76837;SDS011;65797;47.352;8.164;2023-03-20T00:33:30;2.50;;;2.07;;
76837;SDS011;65797;47.352;8.164;2023-03-20T00:35:56;2.63;;;2.37;;
76837;SDS011;65797;47.352;8.164;2023-03-20T00:38:23;5.40;;;2.87;;
76837;SDS011;65797;47.352;8.164;2023-03-20T00:40:49;2.53;;;2.33;;
76837;SDS011;65797;47.352;8.164;2023-03-20T00:43:15;2.30;;;2.10;;
76837;SDS011;65797;47.352;8.164;2023-03-20T00:45:41;5.10;;;2.90;;
76837;SDS011;65797;47.352;8.164;2023-03-20T00:48:12;4.00;;;2.70;;
76837;SDS011;65797;47.352;8.164;2023-03-20T00:50:39;3.00;;;2.40;;
76837;SDS011;65797;47.352;8.164;2023-03-20T00:53:08;3.90;;;2.50;;
76837;SDS011;65797;47.352;8.164;2023-03-20T00:55:34;2.70;;;2.50;;
76837;SDS011;65797;47.352;8.164;2023-03-20T00:58:01;2.17;;;2.03;;
76837;SDS011;65797;47.352;8.164;2023-03-20T01:00:40;2.80;;;2.53;;
76837;SDS011;65797;47.352;8.164;2023-03-20T01:05:41;2.67;;;2.47;;
76837;SDS011;65797;47.352;8.164;2023-03-20T01:08:25;7.40;;;2.13;;
76837;SDS011;65797;47.352;8.164;2023-03-20T01:10:55;3.27;;;2.43;;
76837;SDS011;65797;47.352;8.164;2023-03-20T01:13:26;3.27;;;2.40;;
76837;SDS011;65797;47.352;8.164;2023-03-20T01:15:53;2.77;;;2.57;;
76837;SDS011;65797;47.352;8.164;2023-03-20T01:18:21;15.80;;;2.60;;
76837;SDS011;65797;47.352;8.164;2023-03-20T01:20:47;2.57;;;2.47;;
76837;SDS011;65797;47.352;8.164;2023-03-20T01:23:14;2.27;;;2.17;;
76837;SDS011;65797;47.352;8.164;2023-03-20T01:25:40;2.37;;;2.00;;
76837;SDS011;65797;47.352;8.164;2023-03-20T01:28:16;2.77;;;2.20;;
76837;SDS011;65797;47.352;8.164;2023-03-20T01:30:44;9.73;;;2.60;;
76837;SDS011;65797;47.352;8.164;2023-03-20T01:33:20;2.00;;;1.90;;
76837;SDS011;65797;47.352;8.164;2023-03-20T01:35:48;2.60;;;2.40;;
76837;SDS011;65797;47.352;8.164;2023-03-20T01:41:07;3.57;;;2.20;;
76837;SDS011;65797;47.352;8.164;2023-03-20T01:43:41;2.80;;;2.60;;
76837;SDS011;65797;47.352;8.164;2023-03-20T01:51:21;2.60;;;2.40;;
76837;SDS011;65797;47.352;8.164;2023-03-20T01:53:48;2.33;;;2.13;;
76837;SDS011;65797;47.352;8.164;2023-03-20T01:56:18;2.60;;;2.40;;
76837;SDS011;65797;47.352;8.164;2023-03-20T01:58:46;2.43;;;2.10;;
76837;SDS011;65797;47.352;8.164;2023-03-20T02:01:17;2.13;;;2.03;;
76837;SDS011;65797;47.352;8.164;2023-03-20T02:03:45;2.20;;;2.00;;
76837;SDS011;65797;47.352;8.164;2023-03-20T02:06:14;2.40;;;2.20;;
76837;SDS011;65797;47.352;8.164;2023-03-20T02:08:50;2.60;;;2.40;;
76837;SDS011;65797;47.352;8.164;2023-03-20T02:11:17;2.40;;;2.30;;
76837;SDS011;65797;47.352;8.164;2023-03-20T02:13:46;3.13;;;2.60;;
76837;SDS011;65797;47.352;8.164;2023-03-20T02:16:15;3.10;;;2.90;;
76837;SDS011;65797;47.352;8.164;2023-03-20T02:18:42;4.83;;;3.30;;
76837;SDS011;65797;47.352;8.164;2023-03-20T02:43:14;3.03;;;2.73;;
76837;SDS011;65797;47.352;8.164;2023-03-20T02:45:51;3.17;;;2.87;;
76837;SDS011;65797;47.352;8.164;2023-03-20T02:48:22;9.53;;;3.10;;
76837;SDS011;65797;47.352;8.164;2023-03-20T02:51:06;2.83;;;2.63;;
76837;SDS011;65797;47.352;8.164;2023-03-20T02:59:01;2.53;;;2.43;;
76837;SDS011;65797;47.352;8.164;2023-03-20T03:01:30;3.73;;;3.00;;
76837;SDS011;65797;47.352;8.164;2023-03-20T03:04:47;4.23;;;2.47;;
76837;SDS011;65797;47.352;8.164;2023-03-20T03:06:53;3.33;;;2.70;;
76837;SDS011;65797;47.352;8.164;2023-03-20T03:09:23;3.30;;;2.57;;
76837;SDS011;65797;47.352;8.164;2023-03-20T03:12:05;2.70;;;2.50;;
76837;SDS011;65797;47.352;8.164;2023-03-20T03:14:38;3.73;;;2.90;;
76837;SDS011;65797;47.352;8.164;2023-03-20T03:17:11;4.00;;;2.37;;
76837;SDS011;65797;47.352;8.164;2023-03-20T03:19:39;3.10;;;2.80;;
76837;SDS011;65797;47.352;8.164;2023-03-20T03:22:10;3.03;;;2.70;;
76837;SDS011;65797;47.352;8.164;2023-03-20T03:24:37;2.90;;;2.70;;
76837;SDS011;65797;47.352;8.164;2023-03-20T03:27:22;2.67;;;2.40;;
76837;SDS011;65797;47.352;8.164;2023-03-20T03:30:05;3.33;;;3.10;;
76837;SDS011;65797;47.352;8.164;2023-03-20T03:32:39;4.10;;;2.93;;
76837;SDS011;65797;47.352;8.164;2023-03-20T03:35:12;3.60;;;3.30;;
76837;SDS011;65797;47.352;8.164;2023-03-20T03:46:06;2.73;;;2.57;;
76837;SDS011;65797;47.352;8.164;2023-03-20T03:48:46;4.87;;;3.07;;
76837;SDS011;65797;47.352;8.164;2023-03-20T03:51:17;4.33;;;3.00;;
76837;SDS011;65797;47.352;8.164;2023-03-20T03:53:58;4.20;;;3.00;;
76837;SDS011;65797;47.352;8.164;2023-03-20T03:56:28;3.20;;;3.00;;
76837;SDS011;65797;47.352;8.164;2023-03-20T03:59:00;2.80;;;2.60;;
76837;SDS011;65797;47.352;8.164;2023-03-20T04:01:31;3.57;;;3.23;;
76837;SDS011;65797;47.352;8.164;2023-03-20T04:04:02;4.33;;;2.83;;
76837;SDS011;65797;47.352;8.164;2023-03-20T04:06:31;3.30;;;2.97;;
76837;SDS011;65797;47.352;8.164;2023-03-20T04:08:57;3.10;;;2.87;;
76837;SDS011;65797;47.352;8.164;2023-03-20T04:11:24;3.77;;;3.43;;
76837;SDS011;65797;47.352;8.164;2023-03-20T04:13:53;3.50;;;3.10;;
76837;SDS011;65797;47.352;8.164;2023-03-20T04:16:20;3.00;;;2.80;;
76837;SDS011;65797;47.352;8.164;2023-03-20T04:18:47;3.10;;;2.90;;
76837;SDS011;65797;47.352;8.164;2023-03-20T04:21:14;3.00;;;2.70;;
76837;SDS011;65797;47.352;8.164;2023-03-20T04:23:41;2.77;;;2.57;;
76837;SDS011;65797;47.352;8.164;2023-03-20T04:26:10;2.93;;;2.73;;
76837;SDS011;65797;47.352;8.164;2023-03-20T04:28:39;3.37;;;3.00;;
76837;SDS011;65797;47.352;8.164;2023-03-20T04:31:05;3.33;;;3.03;;
76837;SDS011;65797;47.352;8.164;2023-03-20T04:33:31;3.20;;;2.90;;
76837;SDS011;65797;47.352;8.164;2023-03-20T04:35:57;2.80;;;2.60;;
76837;SDS011;65797;47.352;8.164;2023-03-20T04:38:23;3.30;;;2.87;;
76837;SDS011;65797;47.352;8.164;2023-03-20T04:40:49;2.63;;;2.50;;
76837;SDS011;65797;47.352;8.164;2023-03-20T04:43:15;3.13;;;2.83;;
76837;SDS011;65797;47.352;8.164;2023-03-20T04:45:41;3.07;;;2.57;;
76837;SDS011;65797;47.352;8.164;2023-03-20T04:48:07;2.97;;;2.77;;
76837;SDS011;65797;47.352;8.164;2023-03-20T04:50:33;2.80;;;2.60;;
76837;SDS011;65797;47.352;8.164;2023-03-20T04:52:58;2.47;;;2.37;;
76837;SDS011;65797;47.352;8.164;2023-03-20T04:55:24;3.00;;;2.80;;
76837;SDS011;65797;47.352;8.164;2023-03-20T04:57:50;3.70;;;3.13;;
76837;SDS011;65797;47.352;8.164;2023-03-20T05:00:16;5.57;;;3.43;;
76837;SDS011;65797;47.352;8.164;2023-03-20T05:02:42;5.60;;;3.37;;
76837;SDS011;65797;47.352;8.164;2023-03-20T05:05:08;4.93;;;3.10;;
76837;SDS011;65797;47.352;8.164;2023-03-20T05:07:35;3.20;;;3.00;;
76837;SDS011;65797;47.352;8.164;2023-03-20T05:10:04;3.43;;;3.13;;
76837;SDS011;65797;47.352;8.164;2023-03-20T05:12:30;3.97;;;3.67;;
76837;SDS011;65797;47.352;8.164;2023-03-20T05:14:56;2.77;;;2.57;;
76837;SDS011;65797;47.352;8.164;2023-03-20T05:17:22;3.33;;;3.03;;
76837;SDS011;65797;47.352;8.164;2023-03-20T05:19:48;3.53;;;3.20;;
76837;SDS011;65797;47.352;8.164;2023-03-20T05:22:16;3.93;;;2.90;;
76837;SDS011;65797;47.352;8.164;2023-03-20T05:24:42;2.63;;;2.43;;
76837;SDS011;65797;47.352;8.164;2023-03-20T05:27:08;3.20;;;3.00;;
76837;SDS011;65797;47.352;8.164;2023-03-20T05:29:34;3.73;;;3.13;;
76837;SDS011;65797;47.352;8.164;2023-03-20T05:32:00;5.07;;;3.00;;
76837;SDS011;65797;47.352;8.164;2023-03-20T05:34:26;3.43;;;3.13;;
76837;SDS011;65797;47.352;8.164;2023-03-20T05:36:54;3.50;;;3.20;;
76837;SDS011;65797;47.352;8.164;2023-03-20T05:39:20;3.83;;;3.20;;
76837;SDS011;65797;47.352;8.164;2023-03-20T05:41:46;3.33;;;3.13;;
76837;SDS011;65797;47.352;8.164;2023-03-20T05:44:12;2.83;;;2.63;;
76837;SDS011;65797;47.352;8.164;2023-03-20T05:46:38;3.10;;;2.90;;
76837;SDS011;65797;47.352;8.164;2023-03-20T05:49:03;4.20;;;2.50;;
76837;SDS011;65797;47.352;8.164;2023-03-20T05:51:29;3.20;;;2.93;;
76837;SDS011;65797;47.352;8.164;2023-03-20T05:53:55;3.80;;;3.33;;
76837;SDS011;65797;47.352;8.164;2023-03-20T05:56:21;3.30;;;3.00;;
76837;SDS011;65797;47.352;8.164;2023-03-20T05:58:46;3.03;;;2.83;;
76837;SDS011;65797;47.352;8.164;2023-03-20T06:01:12;3.27;;;2.97;;
76837;SDS011;65797;47.352;8.164;2023-03-20T06:03:40;2.93;;;2.60;;
76837;SDS011;65797;47.352;8.164;2023-03-20T06:06:06;4.10;;;3.13;;
76837;SDS011;65797;47.352;8.164;2023-03-20T06:08:32;3.17;;;2.97;;
76837;SDS011;65797;47.352;8.164;2023-03-20T06:11:00;3.03;;;2.73;;
76837;SDS011;65797;47.352;8.164;2023-03-20T06:13:26;3.03;;;2.70;;
76837;SDS011;65797;47.352;8.164;2023-03-20T06:15:52;3.33;;;2.97;;
76837;SDS011;65797;47.352;8.164;2023-03-20T06:18:17;2.50;;;2.30;;
76837;SDS011;65797;47.352;8.164;2023-03-20T06:20:43;2.47;;;2.33;;
76837;SDS011;65797;47.352;8.164;2023-03-20T06:23:09;2.70;;;2.50;;
76837;SDS011;65797;47.352;8.164;2023-03-20T06:25:35;3.03;;;2.83;;
76837;SDS011;65797;47.352;8.164;2023-03-20T06:28:02;2.30;;;2.20;;
76837;SDS011;65797;47.352;8.164;2023-03-20T06:30:28;2.20;;;2.03;;
76837;SDS011;65797;47.352;8.164;2023-03-20T06:32:54;9.63;;;3.70;;
76837;SDS011;65797;47.352;8.164;2023-03-20T06:35:19;3.67;;;3.00;;
76837;SDS011;65797;47.352;8.164;2023-03-20T06:37:45;3.20;;;3.00;;
76837;SDS011;65797;47.352;8.164;2023-03-20T06:40:11;2.57;;;2.37;;
76837;SDS011;65797;47.352;8.164;2023-03-20T06:42:37;2.30;;;2.20;;
76837;SDS011;65797;47.352;8.164;2023-03-20T06:45:02;3.80;;;2.43;;
76837;SDS011;65797;47.352;8.164;2023-03-20T06:47:30;7.33;;;2.70;;
76837;SDS011;65797;47.352;8.164;2023-03-20T06:49:56;3.10;;;2.87;;
76837;SDS011;65797;47.352;8.164;2023-03-20T06:52:22;4.67;;;3.30;;
76837;SDS011;65797;47.352;8.164;2023-03-20T06:54:48;6.27;;;4.80;;
76837;SDS011;65797;47.352;8.164;2023-03-20T06:57:15;6.37;;;3.80;;
76837;SDS011;65797;47.352;8.164;2023-03-20T06:59:41;7.70;;;4.30;;
76837;SDS011;65797;47.352;8.164;2023-03-20T07:02:08;4.27;;;3.10;;
76837;SDS011;65797;47.352;8.164;2023-03-20T07:04:34;2.87;;;2.67;;
76837;SDS011;65797;47.352;8.164;2023-03-20T07:07:01;2.80;;;2.63;;
76837;SDS011;65797;47.352;8.164;2023-03-20T07:09:27;8.73;;;2.60;;
76837;SDS011;65797;47.352;8.164;2023-03-20T07:11:52;3.40;;;2.40;;
76837;SDS011;65797;47.352;8.164;2023-03-20T07:14:18;3.03;;;2.83;;
76837;SDS011;65797;47.352;8.164;2023-03-20T07:16:44;2.57;;;2.37;;
76837;SDS011;65797;47.352;8.164;2023-03-20T07:19:10;2.70;;;2.50;;
76837;SDS011;65797;47.352;8.164;2023-03-20T07:21:37;2.23;;;2.03;;
76837;SDS011;65797;47.352;8.164;2023-03-20T07:24:03;3.10;;;2.20;;
76837;SDS011;65797;47.352;8.164;2023-03-20T07:26:31;2.10;;;1.90;;
76837;SDS011;65797;47.352;8.164;2023-03-20T07:28:57;2.17;;;1.97;;
76837;SDS011;65797;47.352;8.164;2023-03-20T07:31:23;1.90;;;1.80;;
76837;SDS011;65797;47.352;8.164;2023-03-20T07:33:50;1.63;;;1.53;;
76837;SDS011;65797;47.352;8.164;2023-03-20T07:36:16;1.70;;;1.60;;
76837;SDS011;65797;47.352;8.164;2023-03-20T07:38:42;1.33;;;1.33;;
76837;SDS011;65797;47.352;8.164;2023-03-20T07:41:07;1.73;;;1.63;;
76837;SDS011;65797;47.352;8.164;2023-03-20T07:43:33;1.77;;;1.67;;
76837;SDS011;65797;47.352;8.164;2023-03-20T07:46:06;3.30;;;1.50;;
76837;SDS011;65797;47.352;8.164;2023-03-20T07:48:33;1.43;;;1.33;;
76837;SDS011;65797;47.352;8.164;2023-03-20T07:51:00;1.70;;;1.60;;
76837;SDS011;65797;47.352;8.164;2023-03-20T07:53:26;3.53;;;1.50;;
76837;SDS011;65797;47.352;8.164;2023-03-20T07:55:52;2.50;;;1.50;;
76837;SDS011;65797;47.352;8.164;2023-03-20T07:58:17;1.13;;;1.10;;
76837;SDS011;65797;47.352;8.164;2023-03-20T08:00:43;1.77;;;1.20;;
76837;SDS011;65797;47.352;8.164;2023-03-20T08:03:09;1.20;;;1.10;;
76837;SDS011;65797;47.352;8.164;2023-03-20T08:05:35;3.57;;;1.30;;
76837;SDS011;65797;47.352;8.164;2023-03-20T08:08:01;3.40;;;2.37;;
76837;SDS011;65797;47.352;8.164;2023-03-20T08:10:27;1.50;;;1.40;;
76837;SDS011;65797;47.352;8.164;2023-03-20T08:12:53;2.87;;;1.27;;
76837;SDS011;65797;47.352;8.164;2023-03-20T08:15:19;1.63;;;1.50;;
76837;SDS011;65797;47.352;8.164;2023-03-20T08:17:45;2.17;;;1.63;;
76837;SDS011;65797;47.352;8.164;2023-03-20T08:20:11;1.33;;;1.10;;
76837;SDS011;65797;47.352;8.164;2023-03-20T08:22:38;3.13;;;1.20;;
76837;SDS011;65797;47.352;8.164;2023-03-20T08:25:05;2.10;;;1.30;;
76837;SDS011;65797;47.352;8.164;2023-03-20T08:27:32;2.43;;;1.40;;
76837;SDS011;65797;47.352;8.164;2023-03-20T08:40:20;2.40;;;1.23;;
76837;SDS011;65797;47.352;8.164;2023-03-20T08:42:46;1.80;;;1.70;;
76837;SDS011;65797;47.352;8.164;2023-03-20T08:45:11;1.83;;;1.70;;
76837;SDS011;65797;47.352;8.164;2023-03-20T08:47:37;2.50;;;1.70;;
76837;SDS011;65797;47.352;8.164;2023-03-20T08:50:03;2.13;;;1.90;;
76837;SDS011;65797;47.352;8.164;2023-03-20T08:52:29;1.93;;;1.83;;
76837;SDS011;65797;47.352;8.164;2023-03-20T08:54:55;2.00;;;1.90;;
76837;SDS011;65797;47.352;8.164;2023-03-20T08:57:21;1.90;;;1.70;;
76837;SDS011;65797;47.352;8.164;2023-03-20T08:59:47;2.70;;;1.90;;
76837;SDS011;65797;47.352;8.164;2023-03-20T09:02:13;2.40;;;1.80;;
76837;SDS011;65797;47.352;8.164;2023-03-20T09:04:38;2.60;;;2.03;;
76837;SDS011;65797;47.352;8.164;2023-03-20T09:07:05;2.10;;;1.90;;
76837;SDS011;65797;47.352;8.164;2023-03-20T09:09:30;2.70;;;1.40;;
76837;SDS011;65797;47.352;8.164;2023-03-20T09:11:57;1.70;;;1.60;;
76837;SDS011;65797;47.352;8.164;2023-03-20T09:14:24;1.80;;;1.70;;
76837;SDS011;65797;47.352;8.164;2023-03-20T09:16:51;3.80;;;1.63;;
76837;SDS011;65797;47.352;8.164;2023-03-20T09:19:17;1.73;;;1.50;;
76837;SDS011;65797;47.352;8.164;2023-03-20T09:21:44;3.40;;;1.80;;
76837;SDS011;65797;47.352;8.164;2023-03-20T09:24:13;1.43;;;1.30;;
76837;SDS011;65797;47.352;8.164;2023-03-20T09:26:40;2.53;;;1.50;;
76837;SDS011;65797;47.352;8.164;2023-03-20T09:29:06;1.40;;;1.30;;
76837;SDS011;65797;47.352;8.164;2023-03-20T09:31:31;1.20;;;1.20;;
76837;SDS011;65797;47.352;8.164;2023-03-20T09:33:58;0.93;;;0.93;;
76837;SDS011;65797;47.352;8.164;2023-03-20T09:36:23;1.10;;;0.97;;
76837;SDS011;65797;47.352;8.164;2023-03-20T09:38:49;1.00;;;1.00;;
76837;SDS011;65797;47.352;8.164;2023-03-20T09:41:22;1.03;;;1.03;;
76837;SDS011;65797;47.352;8.164;2023-03-20T09:54:55;1.00;;;0.90;;
76837;SDS011;65797;47.352;8.164;2023-03-20T09:57:25;0.97;;;0.93;;
76837;SDS011;65797;47.352;8.164;2023-03-20T09:59:57;1.00;;;0.90;;
76837;SDS011;65797;47.352;8.164;2023-03-20T10:02:43;2.67;;;0.90;;
76837;SDS011;65797;47.352;8.164;2023-03-20T10:07:54;1.20;;;0.70;;
76837;SDS011;65797;47.352;8.164;2023-03-20T10:10:41;1.33;;;1.00;;
76837;SDS011;65797;47.352;8.164;2023-03-20T10:18:59;2.20;;;0.90;;
76837;SDS011;65797;47.352;8.164;2023-03-20T10:21:44;0.87;;;0.70;;
76837;SDS011;65797;47.352;8.164;2023-03-20T10:24:21;2.53;;;1.10;;
76837;SDS011;65797;47.352;8.164;2023-03-20T10:26:52;3.63;;;1.00;;
76837;SDS011;65797;47.352;8.164;2023-03-20T10:32:10;1.10;;;1.07;;
76837;SDS011;65797;47.352;8.164;2023-03-20T13:00:47;3.17;;;0.90;;
76837;SDS011;65797;47.352;8.164;2023-03-20T13:26:53;3.17;;;1.17;;
76837;SDS011;65797;47.352;8.164;2023-03-20T13:34:49;1.27;;;0.93;;
76837;SDS011;65797;47.352;8.164;2023-03-20T13:37:29;7.03;;;0.90;;
76837;SDS011;65797;47.352;8.164;2023-03-20T13:45:47;1.37;;;0.90;;
76837;SDS011;65797;47.352;8.164;2023-03-20T13:48:29;1.40;;;0.90;;
76837;SDS011;65797;47.352;8.164;2023-03-20T16:06:23;3.60;;;1.10;;
76837;SDS011;65797;47.352;8.164;2023-03-20T16:08:59;1.90;;;1.13;;
76837;SDS011;65797;47.352;8.164;2023-03-20T17:44:02;7.20;;;2.33;;
76837;SDS011;65797;47.352;8.164;2023-03-20T17:46:28;3.37;;;2.10;;
76837;SDS011;65797;47.352;8.164;2023-03-20T17:49:00;2.50;;;1.67;;
76837;SDS011;65797;47.352;8.164;2023-03-20T17:51:28;1.70;;;1.60;;
76837;SDS011;65797;47.352;8.164;2023-03-20T17:53:54;1.23;;;1.13;;
76837;SDS011;65797;47.352;8.164;2023-03-20T17:56:22;5.47;;;1.90;;
76837;SDS011;65797;47.352;8.164;2023-03-20T17:58:51;2.40;;;1.30;;
76837;SDS011;65797;47.352;8.164;2023-03-20T18:01:17;2.10;;;0.70;;
76837;SDS011;65797;47.352;8.164;2023-03-20T18:03:42;1.10;;;1.00;;
76837;SDS011;65797;47.352;8.164;2023-03-20T18:06:11;0.90;;;0.90;;
76837;SDS011;65797;47.352;8.164;2023-03-20T18:08:56;1.00;;;1.00;;
76837;SDS011;65797;47.352;8.164;2023-03-20T18:11:26;1.20;;;1.10;;
76837;SDS011;65797;47.352;8.164;2023-03-20T18:13:52;1.10;;;0.97;;
76837;SDS011;65797;47.352;8.164;2023-03-20T18:16:21;1.10;;;1.00;;
76837;SDS011;65797;47.352;8.164;2023-03-20T18:18:48;2.83;;;1.00;;
76837;SDS011;65797;47.352;8.164;2023-03-20T18:21:15;0.93;;;0.93;;
76837;SDS011;65797;47.352;8.164;2023-03-20T18:23:42;3.40;;;1.20;;
76837;SDS011;65797;47.352;8.164;2023-03-20T18:28:48;1.40;;;0.90;;
76837;SDS011;65797;47.352;8.164;2023-03-20T18:31:15;0.93;;;0.90;;
76837;SDS011;65797;47.352;8.164;2023-03-20T18:33:47;1.23;;;1.13;;
76837;SDS011;65797;47.352;8.164;2023-03-20T18:36:15;0.80;;;0.80;;
76837;SDS011;65797;47.352;8.164;2023-03-20T18:38:42;1.90;;;1.20;;
76837;SDS011;65797;47.352;8.164;2023-03-20T18:41:08;3.40;;;1.20;;
76837;SDS011;65797;47.352;8.164;2023-03-20T18:43:35;1.33;;;1.00;;
76837;SDS011;65797;47.352;8.164;2023-03-20T18:46:03;1.00;;;0.90;;
76837;SDS011;65797;47.352;8.164;2023-03-20T18:48:28;2.40;;;1.30;;
76837;SDS011;65797;47.352;8.164;2023-03-20T18:50:55;2.33;;;1.00;;
76837;SDS011;65797;47.352;8.164;2023-03-20T18:53:25;2.80;;;1.00;;
76837;SDS011;65797;47.352;8.164;2023-03-20T18:55:51;1.10;;;1.00;;
76837;SDS011;65797;47.352;8.164;2023-03-20T18:58:21;1.67;;;1.20;;
76837;SDS011;65797;47.352;8.164;2023-03-20T19:00:48;1.50;;;1.40;;
76837;SDS011;65797;47.352;8.164;2023-03-20T19:03:15;1.17;;;1.10;;
76837;SDS011;65797;47.352;8.164;2023-03-20T19:05:41;4.00;;;1.20;;
76837;SDS011;65797;47.352;8.164;2023-03-20T19:08:07;2.10;;;1.40;;
76837;SDS011;65797;47.352;8.164;2023-03-20T19:10:38;3.80;;;1.17;;
76837;SDS011;65797;47.352;8.164;2023-03-20T19:13:09;6.13;;;1.57;;
76837;SDS011;65797;47.352;8.164;2023-03-20T19:15:39;2.30;;;1.23;;
76837;SDS011;65797;47.352;8.164;2023-03-20T19:18:06;1.87;;;1.60;;
76837;SDS011;65797;47.352;8.164;2023-03-20T19:20:39;4.67;;;2.30;;
76837;SDS011;65797;47.352;8.164;2023-03-20T19:23:14;1.23;;;1.13;;
76837;SDS011;65797;47.352;8.164;2023-03-20T19:25:45;5.80;;;1.30;;
76837;SDS011;65797;47.352;8.164;2023-03-20T19:28:16;1.70;;;1.60;;
76837;SDS011;65797;47.352;8.164;2023-03-20T19:30:50;2.70;;;1.60;;
76837;SDS011;65797;47.352;8.164;2023-03-20T19:33:17;3.13;;;1.53;;
76837;SDS011;65797;47.352;8.164;2023-03-20T19:35:44;1.70;;;1.60;;
76837;SDS011;65797;47.352;8.164;2023-03-20T19:38:16;6.60;;;1.40;;
76837;SDS011;65797;47.352;8.164;2023-03-20T19:40:46;4.43;;;1.43;;
76837;SDS011;65797;47.352;8.164;2023-03-20T19:43:15;2.10;;;1.67;;
76837;SDS011;65797;47.352;8.164;2023-03-20T19:45:41;1.40;;;1.30;;
76837;SDS011;65797;47.352;8.164;2023-03-20T19:48:12;1.80;;;1.70;;
76837;SDS011;65797;47.352;8.164;2023-03-20T19:50:40;3.10;;;1.80;;
76837;SDS011;65797;47.352;8.164;2023-03-20T19:53:09;1.97;;;1.60;;
76837;SDS011;65797;47.352;8.164;2023-03-20T19:55:37;2.40;;;1.20;;
76837;SDS011;65797;47.352;8.164;2023-03-20T19:58:03;1.77;;;1.67;;
76837;SDS011;65797;47.352;8.164;2023-03-20T20:00:30;1.73;;;1.43;;
76837;SDS011;65797;47.352;8.164;2023-03-20T20:02:57;1.87;;;1.40;;
76837;SDS011;65797;47.352;8.164;2023-03-20T20:05:25;8.60;;;1.53;;
76837;SDS011;65797;47.352;8.164;2023-03-20T20:07:56;1.83;;;1.60;;
76837;SDS011;65797;47.352;8.164;2023-03-20T20:10:26;1.80;;;1.60;;
76837;SDS011;65797;47.352;8.164;2023-03-20T20:12:54;1.33;;;1.33;;
76837;SDS011;65797;47.352;8.164;2023-03-20T20:15:19;2.47;;;1.33;;
76837;SDS011;65797;47.352;8.164;2023-03-20T20:17:46;1.77;;;1.67;;
76837;SDS011;65797;47.352;8.164;2023-03-20T20:20:13;1.90;;;1.23;;
76837;SDS011;65797;47.352;8.164;2023-03-20T20:22:40;4.73;;;1.80;;
76837;SDS011;65797;47.352;8.164;2023-03-20T20:25:07;1.70;;;1.60;;
76837;SDS011;65797;47.352;8.164;2023-03-20T20:27:34;1.57;;;1.47;;
76837;SDS011;65797;47.352;8.164;2023-03-20T20:29:59;3.47;;;1.87;;
76837;SDS011;65797;47.352;8.164;2023-03-20T20:32:26;2.40;;;1.40;;
76837;SDS011;65797;47.352;8.164;2023-03-20T20:34:52;1.10;;;1.10;;
76837;SDS011;65797;47.352;8.164;2023-03-20T20:37:18;1.70;;;1.30;;
76837;SDS011;65797;47.352;8.164;2023-03-20T20:39:44;1.10;;;1.10;;
76837;SDS011;65797;47.352;8.164;2023-03-20T20:42:10;3.50;;;1.03;;
76837;SDS011;65797;47.352;8.164;2023-03-20T20:44:36;4.53;;;1.23;;
76837;SDS011;65797;47.352;8.164;2023-03-20T20:47:03;1.30;;;1.20;;
76837;SDS011;65797;47.352;8.164;2023-03-20T20:49:29;1.27;;;1.17;;
76837;SDS011;65797;47.352;8.164;2023-03-20T20:51:54;1.87;;;1.07;;
76837;SDS011;65797;47.352;8.164;2023-03-20T20:54:22;1.43;;;1.33;;
76837;SDS011;65797;47.352;8.164;2023-03-20T20:56:48;2.93;;;1.30;;
76837;SDS011;65797;47.352;8.164;2023-03-20T20:59:14;1.40;;;1.20;;
76837;SDS011;65797;47.352;8.164;2023-03-20T21:01:40;2.40;;;1.20;;
76837;SDS011;65797;47.352;8.164;2023-03-20T21:04:05;1.10;;;1.00;;
76837;SDS011;65797;47.352;8.164;2023-03-20T21:06:31;3.90;;;1.50;;
76837;SDS011;65797;47.352;8.164;2023-03-20T21:08:56;1.20;;;1.10;;
76837;SDS011;65797;47.352;8.164;2023-03-20T21:11:22;2.03;;;1.17;;
76837;SDS011;65797;47.352;8.164;2023-03-20T21:13:49;1.30;;;1.20;;
76837;SDS011;65797;47.352;8.164;2023-03-20T21:16:15;1.87;;;1.30;;
76837;SDS011;65797;47.352;8.164;2023-03-20T21:18:42;5.00;;;1.10;;
76837;SDS011;65797;47.352;8.164;2023-03-20T21:21:10;2.90;;;1.63;;
76837;SDS011;65797;47.352;8.164;2023-03-20T21:23:36;1.20;;;1.20;;
76837;SDS011;65797;47.352;8.164;2023-03-20T21:26:03;1.20;;;1.10;;
76837;SDS011;65797;47.352;8.164;2023-03-20T21:28:29;1.40;;;1.30;;
76837;SDS011;65797;47.352;8.164;2023-03-20T21:30:55;5.90;;;1.70;;
76837;SDS011;65797;47.352;8.164;2023-03-20T21:33:21;1.33;;;1.30;;
76837;SDS011;65797;47.352;8.164;2023-03-20T21:35:48;2.53;;;2.00;;
76837;SDS011;65797;47.352;8.164;2023-03-20T21:38:16;5.57;;;1.90;;
76837;SDS011;65797;47.352;8.164;2023-03-20T21:40:43;3.07;;;1.40;;
76837;SDS011;65797;47.352;8.164;2023-03-20T21:43:09;1.70;;;1.60;;
76837;SDS011;65797;47.352;8.164;2023-03-20T21:45:36;1.77;;;1.47;;
76837;SDS011;65797;47.352;8.164;2023-03-20T21:48:03;1.77;;;1.33;;
76837;SDS011;65797;47.352;8.164;2023-03-20T21:50:29;2.23;;;1.40;;
76837;SDS011;65797;47.352;8.164;2023-03-20T21:52:55;1.50;;;1.33;;
76837;SDS011;65797;47.352;8.164;2023-03-20T21:55:21;2.27;;;1.50;;
76837;SDS011;65797;47.352;8.164;2023-03-20T21:57:47;1.30;;;1.20;;
76837;SDS011;65797;47.352;8.164;2023-03-20T22:00:13;1.70;;;1.33;;
76837;SDS011;65797;47.352;8.164;2023-03-20T22:02:40;1.60;;;1.50;;
76837;SDS011;65797;47.352;8.164;2023-03-20T22:05:06;1.70;;;1.60;;
76837;SDS011;65797;47.352;8.164;2023-03-20T22:07:33;2.07;;;1.57;;
76837;SDS011;65797;47.352;8.164;2023-03-20T22:09:59;6.53;;;1.80;;
76837;SDS011;65797;47.352;8.164;2023-03-20T22:12:26;2.40;;;1.73;;
76837;SDS011;65797;47.352;8.164;2023-03-20T22:14:52;1.67;;;1.57;;
76837;SDS011;65797;47.352;8.164;2023-03-20T22:17:18;2.10;;;1.57;;
76837;SDS011;65797;47.352;8.164;2023-03-20T22:19:45;1.93;;;1.47;;
76837;SDS011;65797;47.352;8.164;2023-03-20T22:22:10;1.53;;;1.40;;
76837;SDS011;65797;47.352;8.164;2023-03-20T22:24:37;2.27;;;2.00;;
76837;SDS011;65797;47.352;8.164;2023-03-20T22:27:03;1.90;;;1.80;;
76837;SDS011;65797;47.352;8.164;2023-03-20T22:29:29;1.20;;;1.20;;
76837;SDS011;65797;47.352;8.164;2023-03-20T22:31:55;1.80;;;1.70;;
76837;SDS011;65797;47.352;8.164;2023-03-20T22:34:21;1.93;;;1.73;;
76837;SDS011;65797;47.352;8.164;2023-03-20T22:36:47;1.90;;;1.70;;
76837;SDS011;65797;47.352;8.164;2023-03-20T22:39:13;1.73;;;1.60;;
76837;SDS011;65797;47.352;8.164;2023-03-20T22:41:39;1.60;;;1.50;;
76837;SDS011;65797;47.352;8.164;2023-03-20T22:44:05;1.77;;;1.37;;
76837;SDS011;65797;47.352;8.164;2023-03-20T22:46:31;1.10;;;1.10;;
76837;SDS011;65797;47.352;8.164;2023-03-20T22:48:57;1.70;;;1.60;;
76837;SDS011;65797;47.352;8.164;2023-03-20T22:51:22;1.57;;;1.47;;
76837;SDS011;65797;47.352;8.164;2023-03-20T22:53:48;1.73;;;1.63;;
76837;SDS011;65797;47.352;8.164;2023-03-20T22:56:15;3.70;;;1.67;;
76837;SDS011;65797;47.352;8.164;2023-03-20T22:58:41;1.97;;;1.43;;
76837;SDS011;65797;47.352;8.164;2023-03-20T23:01:07;2.73;;;1.60;;
76837;SDS011;65797;47.352;8.164;2023-03-20T23:03:35;2.13;;;1.97;;